sensor_id;sensor_type;location;lat;lon;timestamp;pressure;altitude;pressure_sealevel;temperature;humidity
6938;BME280;40040;42.706;23.372;2023-03-14T00:00:33;145009.38;;;3.34;63.51
6938;BME280;40040;42.706;23.372;2023-03-14T00:03:00;144995.88;;;3.29;63.54
6938;BME280;40040;42.706;23.372;2023-03-14T00:05:27;144873.28;;;2.79;64.17
6938;BME280;40040;42.706;23.372;2023-03-14T00:07:55;144971.38;;;3.19;64.54
6938;BME280;40040;42.706;23.372;2023-03-14T00:10:22;144949.28;;;3.10;64.91
6938;BME280;40040;42.706;23.372;2023-03-14T00:12:49;144934.56;;;3.04;65.48
6938;BME280;40040;42.706;23.372;2023-03-14T00:15:15;144937.03;;;3.05;65.89
6938;BME280;40040;42.706;23.372;2023-03-14T00:17:43;144911.28;;;2.94;66.17
6938;BME280;40040;42.706;23.372;2023-03-14T00:20:11;144910.03;;;2.94;66.56
6938;BME280;40040;42.706;23.372;2023-03-14T00:22:38;144892.88;;;2.87;67.38
6938;BME280;40040;42.706;23.372;2023-03-14T00:25:08;144896.56;;;2.88;66.60
6938;BME280;40040;42.706;23.372;2023-03-14T00:27:35;144846.31;;;2.68;66.31
6938;BME280;40040;42.706;23.372;2023-03-14T00:30:03;144841.41;;;2.66;67.16
6938;BME280;40040;42.706;23.372;2023-03-14T00:32:30;144847.53;;;2.68;67.78
6938;BME280;40040;42.706;23.372;2023-03-14T00:34:57;144838.97;;;2.65;67.77
6938;BME280;40040;42.706;23.372;2023-03-14T00:37:24;144836.47;;;2.64;68.17
6938;BME280;40040;42.706;23.372;2023-03-14T00:39:51;144836.47;;;2.64;67.83
6938;BME280;40040;42.706;23.372;2023-03-14T00:42:19;144858.56;;;2.73;67.69
6938;BME280;40040;42.706;23.372;2023-03-14T00:44:46;144848.72;;;2.69;67.71
6938;BME280;40040;42.706;23.372;2023-03-14T00:47:13;144843.88;;;2.67;67.87
6938;BME280;40040;42.706;23.372;2023-03-14T00:49:40;144858.56;;;2.73;67.83
6938;BME280;40040;42.706;23.372;2023-03-14T00:52:08;144843.88;;;2.67;67.83
6938;BME280;40040;42.706;23.372;2023-03-14T00:54:35;144853.66;;;2.71;68.11
6938;BME280;40040;42.706;23.372;2023-03-14T00:57:02;144805.81;;;2.51;68.46
6938;BME280;40040;42.706;23.372;2023-03-14T00:59:30;144841.41;;;2.66;68.73
6938;BME280;40040;42.706;23.372;2023-03-14T01:01:57;144835.28;;;2.63;69.28
6938;BME280;40040;42.706;23.372;2023-03-14T01:04:24;144825.47;;;2.59;69.59
6938;BME280;40040;42.706;23.372;2023-03-14T01:06:51;144809.56;;;2.53;69.94
6938;BME280;40040;42.706;23.372;2023-03-14T01:09:17;144797.25;;;2.48;70.66
6938;BME280;40040;42.706;23.372;2023-03-14T01:11:44;144767.84;;;2.36;71.21
6938;BME280;40040;42.706;23.372;2023-03-14T01:14:12;144794.81;;;2.47;72.28
6938;BME280;40040;42.706;23.372;2023-03-14T01:16:40;144794.81;;;2.47;71.52
6938;BME280;40040;42.706;23.372;2023-03-14T01:19:07;144771.56;;;2.37;71.82
6938;BME280;40040;42.706;23.372;2023-03-14T01:21:34;144786.25;;;2.43;71.50
6938;BME280;40040;42.706;23.372;2023-03-14T01:24:04;144765.41;;;2.35;72.15
6938;BME280;40040;42.706;23.372;2023-03-14T01:26:32;144753.16;;;2.29;72.83
6938;BME280;40040;42.706;23.372;2023-03-14T01:29:00;144738.44;;;2.23;74.08
6938;BME280;40040;42.706;23.372;2023-03-14T01:31:27;144755.59;;;2.30;74.54
6938;BME280;40040;42.706;23.372;2023-03-14T01:33:55;144762.97;;;2.34;75.00
6938;BME280;40040;42.706;23.372;2023-03-14T01:36:22;144765.41;;;2.35;75.36
6938;BME280;40040;42.706;23.372;2023-03-14T01:38:48;144739.69;;;2.24;75.47
6938;BME280;40040;42.706;23.372;2023-03-14T01:41:17;144731.09;;;2.20;75.87
6938;BME280;40040;42.706;23.372;2023-03-14T01:43:44;144772.75;;;2.38;76.63
6938;BME280;40040;42.706;23.372;2023-03-14T01:46:24;144791.16;;;2.45;75.93
6938;BME280;40040;42.706;23.372;2023-03-14T01:48:57;144770.31;;;2.37;76.29
6938;BME280;40040;42.706;23.372;2023-03-14T01:51:30;144762.97;;;2.34;77.02
6938;BME280;40040;42.706;23.372;2023-03-14T01:54:04;144772.75;;;2.38;77.24
6938;BME280;40040;42.706;23.372;2023-03-14T01:56:32;144770.31;;;2.37;77.30
6938;BME280;40040;42.706;23.372;2023-03-14T01:59:01;144762.97;;;2.34;77.59
6938;BME280;40040;42.706;23.372;2023-03-14T02:01:29;144750.69;;;2.28;78.51
6938;BME280;40040;42.706;23.372;2023-03-14T02:04:00;144745.81;;;2.26;78.90
6938;BME280;40040;42.706;23.372;2023-03-14T02:06:33;144753.16;;;2.29;78.39
6938;BME280;40040;42.706;23.372;2023-03-14T02:09:02;144721.28;;;2.16;79.09
6938;BME280;40040;42.706;23.372;2023-03-14T02:11:30;144718.84;;;2.15;79.81
6938;BME280;40040;42.706;23.372;2023-03-14T02:13:57;144658.81;;;1.91;80.63
6938;BME280;40040;42.706;23.372;2023-03-14T02:16:25;144672.31;;;1.96;81.80
6938;BME280;40040;42.706;23.372;2023-03-14T02:18:52;144682.13;;;2.00;81.87
6938;BME280;40040;42.706;23.372;2023-03-14T02:21:23;144696.78;;;2.06;81.52
6938;BME280;40040;42.706;23.372;2023-03-14T02:24:00;144712.72;;;2.13;80.33
6938;BME280;40040;42.706;23.372;2023-03-14T02:26:34;144655.16;;;1.89;80.72
6938;BME280;40040;42.706;23.372;2023-03-14T02:29:04;144662.50;;;1.92;80.07
6938;BME280;40040;42.706;23.372;2023-03-14T02:31:32;144696.78;;;2.06;80.50
6938;BME280;40040;42.706;23.372;2023-03-14T02:33:59;144706.59;;;2.10;79.28
6938;BME280;40040;42.706;23.372;2023-03-14T02:36:27;144691.88;;;2.04;79.99
6938;BME280;40040;42.706;23.372;2023-03-14T02:39:00;144677.22;;;1.98;80.41
6938;BME280;40040;42.706;23.372;2023-03-14T02:41:30;144661.25;;;1.92;80.79
6938;BME280;40040;42.706;23.372;2023-03-14T02:43:56;144645.34;;;1.85;81.82
6938;BME280;40040;42.706;23.372;2023-03-14T02:46:25;144628.19;;;1.78;82.27
6938;BME280;40040;42.706;23.372;2023-03-14T02:48:54;144609.84;;;1.71;83.06
6938;BME280;40040;42.706;23.372;2023-03-14T02:51:23;144612.28;;;1.72;83.15
6938;BME280;40040;42.706;23.372;2023-03-14T02:53:50;144593.91;;;1.64;83.99
6938;BME280;40040;42.706;23.372;2023-03-14T02:56:17;144593.91;;;1.64;84.40
6938;BME280;40040;42.706;23.372;2023-03-14T02:58:44;144593.91;;;1.64;84.96
6938;BME280;40040;42.706;23.372;2023-03-14T03:01:11;144589.00;;;1.62;85.51
6938;BME280;40040;42.706;23.372;2023-03-14T03:03:39;144576.75;;;1.57;86.18
6938;BME280;40040;42.706;23.372;2023-03-14T03:06:06;144543.69;;;1.44;86.82
6938;BME280;40040;42.706;23.372;2023-03-14T03:08:33;144456.81;;;1.08;88.25
6938;BME280;40040;42.706;23.372;2023-03-14T03:11:00;144519.22;;;1.34;89.06
6938;BME280;40040;42.706;23.372;2023-03-14T03:13:27;144530.22;;;1.38;88.75
6938;BME280;40040;42.706;23.372;2023-03-14T03:15:54;144518.00;;;1.33;89.28
6938;BME280;40040;42.706;23.372;2023-03-14T03:18:21;144513.09;;;1.31;89.82
6938;BME280;40040;42.706;23.372;2023-03-14T03:20:49;144522.88;;;1.35;89.64
6938;BME280;40040;42.706;23.372;2023-03-14T03:23:16;144500.84;;;1.26;89.21
6938;BME280;40040;42.706;23.372;2023-03-14T03:25:47;144515.56;;;1.32;88.83
6938;BME280;40040;42.706;23.372;2023-03-14T03:28:14;144527.78;;;1.37;89.11
6938;BME280;40040;42.706;23.372;2023-03-14T03:30:42;144525.31;;;1.36;89.58
6938;BME280;40040;42.706;23.372;2023-03-14T03:33:09;144486.19;;;1.20;89.68
6938;BME280;40040;42.706;23.372;2023-03-14T03:35:42;144531.47;;;1.39;89.35
6938;BME280;40040;42.706;23.372;2023-03-14T03:38:10;144527.78;;;1.37;89.05
6938;BME280;40040;42.706;23.372;2023-03-14T03:40:38;144510.66;;;1.30;89.92
6938;BME280;40040;42.706;23.372;2023-03-14T03:43:04;144522.88;;;1.35;89.74
6938;BME280;40040;42.706;23.372;2023-03-14T03:45:31;144515.56;;;1.32;89.76
6938;BME280;40040;42.706;23.372;2023-03-14T03:47:59;144513.09;;;1.31;89.58
6938;BME280;40040;42.706;23.372;2023-03-14T03:50:26;144498.41;;;1.25;90.73
6938;BME280;40040;42.706;23.372;2023-03-14T03:52:52;144497.19;;;1.25;91.02
6938;BME280;40040;42.706;23.372;2023-03-14T03:55:21;144499.59;;;1.26;90.92
6938;BME280;40040;42.706;23.372;2023-03-14T03:57:47;144492.28;;;1.23;91.30
6938;BME280;40040;42.706;23.372;2023-03-14T04:00:14;144502.09;;;1.27;91.00
6938;BME280;40040;42.706;23.372;2023-03-14T04:02:41;144492.28;;;1.23;91.15
6938;BME280;40040;42.706;23.372;2023-03-14T04:05:08;144482.50;;;1.19;91.16
6938;BME280;40040;42.706;23.372;2023-03-14T04:07:35;144458.00;;;1.08;91.78
6938;BME280;40040;42.706;23.372;2023-03-14T04:10:03;144445.75;;;1.03;92.72
6938;BME280;40040;42.706;23.372;2023-03-14T04:12:32;144439.66;;;1.01;93.98
6938;BME280;40040;42.706;23.372;2023-03-14T04:14:58;144429.88;;;0.97;94.98
6938;BME280;40040;42.706;23.372;2023-03-14T04:17:25;144412.72;;;0.90;95.52
6938;BME280;40040;42.706;23.372;2023-03-14T04:19:52;144394.34;;;0.82;96.70
6938;BME280;40040;42.706;23.372;2023-03-14T04:22:19;144385.78;;;0.79;97.09
6938;BME280;40040;42.706;23.372;2023-03-14T04:24:46;144373.56;;;0.74;98.34
6938;BME280;40040;42.706;23.372;2023-03-14T04:27:13;144394.34;;;0.82;98.32
6938;BME280;40040;42.706;23.372;2023-03-14T04:29:42;144368.66;;;0.72;97.00
6938;BME280;40040;42.706;23.372;2023-03-14T04:32:08;144405.41;;;0.87;96.41
6938;BME280;40040;42.706;23.372;2023-03-14T04:34:36;144346.63;;;0.63;96.56
6938;BME280;40040;42.706;23.372;2023-03-14T04:37:03;144417.63;;;0.92;96.11
6938;BME280;40040;42.706;23.372;2023-03-14T04:39:29;144423.72;;;0.94;95.52
6938;BME280;40040;42.706;23.372;2023-03-14T04:41:56;144428.63;;;0.96;95.32
6938;BME280;40040;42.706;23.372;2023-03-14T04:44:23;144431.09;;;0.97;94.81
6938;BME280;40040;42.706;23.372;2023-03-14T04:46:51;144434.75;;;0.99;94.47
6938;BME280;40040;42.706;23.372;2023-03-14T04:49:18;144432.28;;;0.98;94.35
6938;BME280;40040;42.706;23.372;2023-03-14T04:51:45;144429.88;;;0.97;94.81
6938;BME280;40040;42.706;23.372;2023-03-14T04:54:12;144432.28;;;0.98;94.75
6938;BME280;40040;42.706;23.372;2023-03-14T04:56:38;144431.09;;;0.97;94.55
6938;BME280;40040;42.706;23.372;2023-03-14T04:59:05;144432.28;;;0.98;94.51
6938;BME280;40040;42.706;23.372;2023-03-14T05:01:33;144432.28;;;0.98;94.63
6938;BME280;40040;42.706;23.372;2023-03-14T05:04:01;144435.97;;;0.99;94.94
6938;BME280;40040;42.706;23.372;2023-03-14T05:06:28;144344.19;;;0.62;94.94
6938;BME280;40040;42.706;23.372;2023-03-14T05:08:55;144429.88;;;0.97;95.23
6938;BME280;40040;42.706;23.372;2023-03-14T05:11:22;144418.81;;;0.92;95.97
6938;BME280;40040;42.706;23.372;2023-03-14T05:13:48;144394.34;;;0.82;96.09
6938;BME280;40040;42.706;23.372;2023-03-14T05:16:15;144422.53;;;0.94;96.06
6938;BME280;40040;42.706;23.372;2023-03-14T05:18:42;144424.97;;;0.95;95.89
6938;BME280;40040;42.706;23.372;2023-03-14T05:21:10;144423.72;;;0.94;95.67
6938;BME280;40040;42.706;23.372;2023-03-14T05:23:38;144400.50;;;0.85;95.72
6938;BME280;40040;42.706;23.372;2023-03-14T05:26:05;144454.34;;;1.07;95.86
6938;BME280;40040;42.706;23.372;2023-03-14T05:28:32;144390.69;;;0.81;95.93
6938;BME280;40040;42.706;23.372;2023-03-14T05:30:59;144476.38;;;1.16;95.59
6938;BME280;40040;42.706;23.372;2023-03-14T05:33:26;144500.84;;;1.26;95.65
6938;BME280;40040;42.706;23.372;2023-03-14T05:35:53;144518.00;;;1.33;95.50
6938;BME280;40040;42.706;23.372;2023-03-14T05:38:21;144551.03;;;1.47;95.24
6938;BME280;40040;42.706;23.372;2023-03-14T05:40:48;144576.75;;;1.57;94.26
6938;BME280;40040;42.706;23.372;2023-03-14T05:43:14;144598.81;;;1.66;93.30
6938;BME280;40040;42.706;23.372;2023-03-14T05:45:41;144628.19;;;1.78;92.21
6938;BME280;40040;42.706;23.372;2023-03-14T05:48:09;144661.25;;;1.92;90.70
6938;BME280;40040;42.706;23.372;2023-03-14T05:50:35;144686.97;;;2.02;87.77
6938;BME280;40040;42.706;23.372;2023-03-14T05:53:02;144715.19;;;2.14;86.34
6938;BME280;40040;42.706;23.372;2023-03-14T05:55:30;144731.09;;;2.20;85.77
6938;BME280;40040;42.706;23.372;2023-03-14T05:57:57;144764.16;;;2.34;84.90
6938;BME280;40040;42.706;23.372;2023-03-14T06:00:24;144722.53;;;2.17;84.14
6938;BME280;40040;42.706;23.372;2023-03-14T06:02:50;144770.31;;;2.37;83.84
6938;BME280;40040;42.706;23.372;2023-03-14T06:05:17;144797.25;;;2.48;82.87
6938;BME280;40040;42.706;23.372;2023-03-14T06:07:44;144794.81;;;2.47;82.17
6938;BME280;40040;42.706;23.372;2023-03-14T06:10:11;144778.91;;;2.40;81.20
6938;BME280;40040;42.706;23.372;2023-03-14T06:12:39;144811.97;;;2.54;82.40
6938;BME280;40040;42.706;23.372;2023-03-14T06:15:07;144804.63;;;2.51;81.61
6938;BME280;40040;42.706;23.372;2023-03-14T06:17:34;144860.97;;;2.74;81.75
6938;BME280;40040;42.706;23.372;2023-03-14T06:20:01;144895.31;;;2.88;82.19
6938;BME280;40040;42.706;23.372;2023-03-14T06:22:27;144948.06;;;3.09;80.46
6938;BME280;40040;42.706;23.372;2023-03-14T06:24:54;144990.97;;;3.27;78.72
6938;BME280;40040;42.706;23.372;2023-03-14T06:27:21;145036.34;;;3.45;77.52
6938;BME280;40040;42.706;23.372;2023-03-14T06:29:49;145082.94;;;3.65;77.24
6938;BME280;40040;42.706;23.372;2023-03-14T06:32:16;145129.56;;;3.84;76.14
6938;BME280;40040;42.706;23.372;2023-03-14T06:34:43;145181.09;;;4.05;73.16
6938;BME280;40040;42.706;23.372;2023-03-14T06:37:10;145211.78;;;4.17;71.88
6938;BME280;40040;42.706;23.372;2023-03-14T06:39:37;145182.34;;;4.05;71.42
6938;BME280;40040;42.706;23.372;2023-03-14T06:42:04;145294.06;;;4.51;70.18
6938;BME280;40040;42.706;23.372;2023-03-14T06:44:31;145268.28;;;4.40;70.57
6938;BME280;40040;42.706;23.372;2023-03-14T06:46:59;145364.00;;;4.80;70.32
6938;BME280;40040;42.706;23.372;2023-03-14T06:49:26;145314.91;;;4.59;69.14
6938;BME280;40040;42.706;23.372;2023-03-14T06:51:53;145443.88;;;5.12;68.90
6938;BME280;40040;42.706;23.372;2023-03-14T06:54:20;145410.66;;;4.99;67.11
6938;BME280;40040;42.706;23.372;2023-03-14T06:56:47;145524.94;;;5.45;66.73
6938;BME280;40040;42.706;23.372;2023-03-14T06:59:14;145585.16;;;5.70;65.61
6938;BME280;40040;42.706;23.372;2023-03-14T07:01:41;145636.78;;;5.91;64.15
6938;BME280;40040;42.706;23.372;2023-03-14T07:04:10;145627.00;;;5.87;63.43
6938;BME280;40040;42.706;23.372;2023-03-14T07:06:37;145601.13;;;5.77;63.31
6938;BME280;40040;42.706;23.372;2023-03-14T07:09:05;145569.16;;;5.63;62.60
6938;BME280;40040;42.706;23.372;2023-03-14T07:11:32;145607.25;;;5.79;62.78
6938;BME280;40040;42.706;23.372;2023-03-14T07:13:58;145608.47;;;5.80;62.47
6938;BME280;40040;42.706;23.372;2023-03-14T07:16:25;145641.72;;;5.93;62.14
6938;BME280;40040;42.706;23.372;2023-03-14T07:18:54;145652.81;;;5.98;59.78
6938;BME280;40040;42.706;23.372;2023-03-14T07:21:22;145594.97;;;5.74;60.11
6938;BME280;40040;42.706;23.372;2023-03-14T07:23:49;145591.28;;;5.72;59.78
6938;BME280;40040;42.706;23.372;2023-03-14T07:26:16;145604.81;;;5.78;60.11
6938;BME280;40040;42.706;23.372;2023-03-14T07:28:43;145627.00;;;5.87;60.51
6938;BME280;40040;42.706;23.372;2023-03-14T07:31:10;145645.38;;;5.95;58.30
6938;BME280;40040;42.706;23.372;2023-03-14T07:33:36;145660.16;;;6.01;59.40
6938;BME280;40040;42.706;23.372;2023-03-14T07:36:04;145698.25;;;6.16;58.02
6938;BME280;40040;42.706;23.372;2023-03-14T07:38:32;145726.53;;;6.28;57.34
6938;BME280;40040;42.706;23.372;2023-03-14T07:40:59;145737.63;;;6.32;57.82
6938;BME280;40040;42.706;23.372;2023-03-14T07:43:26;145742.53;;;6.34;58.30
6938;BME280;40040;42.706;23.372;2023-03-14T07:45:53;145744.97;;;6.35;58.50
6938;BME280;40040;42.706;23.372;2023-03-14T07:48:20;145747.41;;;6.36;58.31
6938;BME280;40040;42.706;23.372;2023-03-14T07:50:51;145762.19;;;6.42;57.72
6938;BME280;40040;42.706;23.372;2023-03-14T07:53:18;145791.69;;;6.54;57.60
6938;BME280;40040;42.706;23.372;2023-03-14T07:55:46;145813.84;;;6.63;57.50
6938;BME280;40040;42.706;23.372;2023-03-14T07:58:13;145881.50;;;6.91;56.27
6938;BME280;40040;42.706;23.372;2023-03-14T08:00:40;145898.72;;;6.98;56.48
6938;BME280;40040;42.706;23.372;2023-03-14T08:03:07;145940.53;;;7.15;55.92
6938;BME280;40040;42.706;23.372;2023-03-14T08:05:34;145956.56;;;7.22;54.97
6938;BME280;40040;42.706;23.372;2023-03-14T08:08:02;145982.38;;;7.32;55.25
6938;BME280;40040;42.706;23.372;2023-03-14T08:10:28;146019.31;;;7.47;55.45
6938;BME280;40040;42.706;23.372;2023-03-14T08:12:58;146064.84;;;7.66;54.03
6938;BME280;40040;42.706;23.372;2023-03-14T08:15:26;146094.38;;;7.78;53.48
6938;BME280;40040;42.706;23.372;2023-03-14T08:17:52;146090.69;;;7.76;52.72
6938;BME280;40040;42.706;23.372;2023-03-14T08:20:20;146061.16;;;7.64;53.19
6938;BME280;40040;42.706;23.372;2023-03-14T08:22:47;146103.00;;;7.81;53.79
6938;BME280;40040;42.706;23.372;2023-03-14T08:25:14;146101.78;;;7.81;53.71
6938;BME280;40040;42.706;23.372;2023-03-14T08:27:41;146114.09;;;7.86;53.22
6938;BME280;40040;42.706;23.372;2023-03-14T08:30:11;146138.69;;;7.96;53.07
6938;BME280;40040;42.706;23.372;2023-03-14T08:32:38;146153.44;;;8.02;52.53
6938;BME280;40040;42.706;23.372;2023-03-14T08:35:06;146162.06;;;8.06;52.34
6938;BME280;40040;42.706;23.372;2023-03-14T08:37:34;146152.25;;;8.02;52.19
6938;BME280;40040;42.706;23.372;2023-03-14T08:40:01;146244.66;;;8.39;52.53
6938;BME280;40040;42.706;23.372;2023-03-14T08:42:31;146286.50;;;8.56;50.81
6938;BME280;40040;42.706;23.372;2023-03-14T08:44:58;146327.19;;;8.73;52.34
6938;BME280;40040;42.706;23.372;2023-03-14T08:47:27;146380.13;;;8.94;51.13
6938;BME280;40040;42.706;23.372;2023-03-14T08:49:54;146433.13;;;9.16;50.63
6938;BME280;40040;42.706;23.372;2023-03-14T08:52:21;146525.56;;;9.54;49.18
6938;BME280;40040;42.706;23.372;2023-03-14T08:54:47;146577.34;;;9.75;47.79
6938;BME280;40040;42.706;23.372;2023-03-14T08:57:14;146641.47;;;10.01;48.38
6938;BME280;40040;42.706;23.372;2023-03-14T08:59:41;146680.97;;;10.17;47.66
6938;BME280;40040;42.706;23.372;2023-03-14T09:02:09;146706.88;;;10.28;47.88
6938;BME280;40040;42.706;23.372;2023-03-14T09:04:38;146778.44;;;10.57;46.44
6938;BME280;40040;42.706;23.372;2023-03-14T09:07:05;146809.28;;;10.69;45.48
6938;BME280;40040;42.706;23.372;2023-03-14T09:09:32;146871.00;;;10.94;45.17
6938;BME280;40040;42.706;23.372;2023-03-14T09:11:59;146926.53;;;11.17;44.03
6938;BME280;40040;42.706;23.372;2023-03-14T09:14:25;146935.19;;;11.20;43.62
6938;BME280;40040;42.706;23.372;2023-03-14T09:16:52;146999.38;;;11.47;43.96
6938;BME280;40040;42.706;23.372;2023-03-14T09:19:19;147031.44;;;11.60;42.86
6938;BME280;40040;42.706;23.372;2023-03-14T09:21:48;147066.06;;;11.74;43.30
6938;BME280;40040;42.706;23.372;2023-03-14T09:24:14;147087.06;;;11.82;42.66
6938;BME280;40040;42.706;23.372;2023-03-14T09:26:41;147143.88;;;12.05;42.28
6938;BME280;40040;42.706;23.372;2023-03-14T09:29:08;147174.78;;;12.18;42.61
6938;BME280;40040;42.706;23.372;2023-03-14T09:31:35;147199.47;;;12.28;42.10
6938;BME280;40040;42.706;23.372;2023-03-14T09:34:02;147214.31;;;12.34;42.45
6938;BME280;40040;42.706;23.372;2023-03-14T09:36:29;147263.72;;;12.54;42.72
6938;BME280;40040;42.706;23.372;2023-03-14T09:38:57;147281.00;;;12.61;41.28
6938;BME280;40040;42.706;23.372;2023-03-14T09:41:26;147320.56;;;12.77;41.02
6938;BME280;40040;42.706;23.372;2023-03-14T09:44:00;147309.41;;;12.73;40.70
6938;BME280;40040;42.706;23.372;2023-03-14T09:46:29;147315.63;;;12.75;41.83
6938;BME280;40040;42.706;23.372;2023-03-14T09:48:57;147353.94;;;12.91;41.50
6938;BME280;40040;42.706;23.372;2023-03-14T09:51:25;147329.22;;;12.81;40.81
6938;BME280;40040;42.706;23.372;2023-03-14T09:53:52;147425.66;;;13.20;41.86
6938;BME280;40040;42.706;23.372;2023-03-14T09:56:23;147517.16;;;13.57;40.85
6938;BME280;40040;42.706;23.372;2023-03-14T09:58:53;147503.56;;;13.51;40.71
6938;BME280;40040;42.706;23.372;2023-03-14T10:01:24;147582.72;;;13.84;41.07
6938;BME280;40040;42.706;23.372;2023-03-14T10:03:54;147607.44;;;13.94;40.51
6938;BME280;40040;42.706;23.372;2023-03-14T10:06:24;147632.19;;;14.04;40.53
6938;BME280;40040;42.706;23.372;2023-03-14T10:08:52;147732.47;;;14.44;40.31
6938;BME280;40040;42.706;23.372;2023-03-14T10:11:22;147841.38;;;14.89;39.72
6938;BME280;40040;42.706;23.372;2023-03-14T10:14:02;147800.53;;;14.72;38.62
6938;BME280;40040;42.706;23.372;2023-03-14T10:16:34;147807.94;;;14.75;38.37
6938;BME280;40040;42.706;23.372;2023-03-14T10:19:03;147821.56;;;14.81;38.54
6938;BME280;40040;42.706;23.372;2023-03-14T10:21:36;147850.06;;;14.92;37.72
6938;BME280;40040;42.706;23.372;2023-03-14T10:24:16;147880.97;;;15.05;38.66
6938;BME280;40040;42.706;23.372;2023-03-14T10:26:49;147828.97;;;14.84;38.38
6938;BME280;40040;42.706;23.372;2023-03-14T10:29:16;147837.63;;;14.87;39.14
6938;BME280;40040;42.706;23.372;2023-03-14T10:31:52;147822.81;;;14.81;38.58
6938;BME280;40040;42.706;23.372;2023-03-14T10:34:25;147869.84;;;15.00;38.05
6938;BME280;40040;42.706;23.372;2023-03-14T10:36:54;147924.31;;;15.22;38.32
6938;BME280;40040;42.706;23.372;2023-03-14T10:39:27;147930.50;;;15.25;39.12
6938;BME280;40040;42.706;23.372;2023-03-14T10:42:04;147954.00;;;15.34;39.11
6938;BME280;40040;42.706;23.372;2023-03-14T10:44:32;148020.97;;;15.61;38.24
6938;BME280;40040;42.706;23.372;2023-03-14T10:47:02;148101.44;;;15.94;36.47
6938;BME280;40040;42.706;23.372;2023-03-14T10:49:32;148134.88;;;16.08;36.49
6938;BME280;40040;42.706;23.372;2023-03-14T10:52:13;148112.63;;;15.99;36.76
6938;BME280;40040;42.706;23.372;2023-03-14T10:54:40;148029.63;;;15.65;37.01
6938;BME280;40040;42.706;23.372;2023-03-14T10:57:11;148066.75;;;15.80;37.54
6938;BME280;40040;42.706;23.372;2023-03-14T10:59:41;148100.19;;;15.94;37.29
6938;BME280;40040;42.706;23.372;2023-03-14T11:02:39;148211.72;;;16.39;37.00
6938;BME280;40040;42.706;23.372;2023-03-14T11:05:17;148278.69;;;16.66;36.00
6938;BME280;40040;42.706;23.372;2023-03-14T11:07:47;148298.50;;;16.74;36.47
6938;BME280;40040;42.706;23.372;2023-03-14T11:10:19;148382.84;;;17.08;35.61
6938;BME280;40040;42.706;23.372;2023-03-14T11:12:57;148428.69;;;17.27;35.01
6938;BME280;40040;42.706;23.372;2023-03-14T11:15:31;148452.28;;;17.36;34.85
6938;BME280;40040;42.706;23.372;2023-03-14T11:18:19;148465.88;;;17.42;36.04
6938;BME280;40040;42.706;23.372;2023-03-14T11:20:51;148568.91;;;17.83;34.12
6938;BME280;40040;42.706;23.372;2023-03-14T11:23:21;148670.63;;;18.25;34.13
6938;BME280;40040;42.706;23.372;2023-03-14T11:25:54;148784.84;;;18.71;33.01
6938;BME280;40040;42.706;23.372;2023-03-14T11:28:29;148926.41;;;19.28;32.59
6938;BME280;40040;42.706;23.372;2023-03-14T11:31:05;148953.75;;;19.39;31.26
6938;BME280;40040;42.706;23.372;2023-03-14T11:33:37;149020.84;;;19.66;31.15
6938;BME280;40040;42.706;23.372;2023-03-14T11:36:07;149080.44;;;19.90;31.28
6938;BME280;40040;42.706;23.372;2023-03-14T11:38:38;149191.06;;;20.35;31.56
6938;BME280;40040;42.706;23.372;2023-03-14T11:41:10;149234.56;;;20.53;30.23
6938;BME280;40040;42.706;23.372;2023-03-14T11:43:47;149311.63;;;20.84;29.27
6938;BME280;40040;42.706;23.372;2023-03-14T11:46:16;149383.81;;;21.13;28.85
6938;BME280;40040;42.706;23.372;2023-03-14T11:48:52;149391.25;;;21.16;29.46
6938;BME280;40040;42.706;23.372;2023-03-14T11:51:26;149460.91;;;21.44;28.58
6938;BME280;40040;42.706;23.372;2023-03-14T11:53:58;149438.50;;;21.35;29.25
6938;BME280;40040;42.706;23.372;2023-03-14T11:56:32;149398.69;;;21.19;28.56
6938;BME280;40040;42.706;23.372;2023-03-14T11:59:05;149432.25;;;21.33;27.54
6938;BME280;40040;42.706;23.372;2023-03-14T12:01:53;149482.03;;;21.53;27.76
6938;BME280;40040;42.706;23.372;2023-03-14T12:04:31;149487.00;;;21.55;27.56
6938;BME280;40040;42.706;23.372;2023-03-14T12:07:02;149530.56;;;21.72;27.16
6938;BME280;40040;42.706;23.372;2023-03-14T12:09:31;149458.38;;;21.43;27.47
6938;BME280;40040;42.706;23.372;2023-03-14T12:12:00;149353.91;;;21.01;27.78
6938;BME280;40040;42.706;23.372;2023-03-14T12:14:31;149184.88;;;20.33;28.36
6938;BME280;40040;42.706;23.372;2023-03-14T12:17:05;149204.75;;;20.41;28.36
6938;BME280;40040;42.706;23.372;2023-03-14T12:19:37;149198.50;;;20.38;28.05
6938;BME280;40040;42.706;23.372;2023-03-14T12:22:17;149212.19;;;20.44;28.32
6938;BME280;40040;42.706;23.372;2023-03-14T12:24:51;149264.38;;;20.65;28.23
6938;BME280;40040;42.706;23.372;2023-03-14T12:30:28;149299.19;;;20.79;28.26
6938;BME280;40040;42.706;23.372;2023-03-14T12:33:21;149316.59;;;20.86;27.48
6938;BME280;40040;42.706;23.372;2023-03-14T12:35:58;149314.13;;;20.85;27.98
6938;BME280;40040;42.706;23.372;2023-03-14T12:38:31;149377.56;;;21.10;27.86
6938;BME280;40040;42.706;23.372;2023-03-14T12:41:13;149349.00;;;20.99;27.80
6938;BME280;40040;42.706;23.372;2023-03-14T12:43:41;149368.88;;;21.07;27.92
6938;BME280;40040;42.706;23.372;2023-03-14T12:46:18;149206.00;;;20.41;28.00
6938;BME280;40040;42.706;23.372;2023-03-14T12:48:49;149024.56;;;19.68;28.83
6938;BME280;40040;42.706;23.372;2023-03-14T12:51:19;148906.50;;;19.20;30.05
6938;BME280;40040;42.706;23.372;2023-03-14T12:54:04;148861.84;;;19.02;29.88
6938;BME280;40040;42.706;23.372;2023-03-14T12:56:42;148844.47;;;18.95;30.38
6938;BME280;40040;42.706;23.372;2023-03-14T12:59:27;148762.53;;;18.62;30.14
6938;BME280;40040;42.706;23.372;2023-03-14T13:02:00;148720.28;;;18.45;29.94
6938;BME280;40040;42.706;23.372;2023-03-14T13:04:31;148638.34;;;18.12;30.86
6938;BME280;40040;42.706;23.372;2023-03-14T13:07:01;148586.25;;;17.90;30.64
6938;BME280;40040;42.706;23.372;2023-03-14T13:09:45;148539.09;;;17.71;30.85